Time;durP1;ratioP1;P1;durP2;ratioP2;P2;SDS_P1;SDS_P2;PMS_P1;PMS_P2;Temp;Humidity;BMP_temperature;BMP_pressure;BME280_temperature;BME280_humidity;BME280_pressure;Samples;Min_cycle;Max_cycle;Signal;HPM_P1;HPM_P2
2022/04/05 00:00:17;;;;;;;0.80;0.80;;;10.00;90.60;;;;;;5112644;28;20466;-72
2022/04/05 00:02:43;;;;;;;0.85;0.75;;;10.00;90.60;;;;;;5093967;28;20397;-71
2022/04/05 00:05:09;;;;;;;1.00;0.90;;;10.00;90.60;;;;;;5112765;28;20047;-72
2022/04/05 00:07:35;;;;;;;1.15;1.00;;;10.00;90.70;;;;;;5112294;28;20036;-72
2022/04/05 00:10:00;;;;;;;1.13;0.90;;;10.00;90.70;;;;;;5112113;28;20126;-71
2022/04/05 00:12:26;;;;;;;1.00;0.82;;;10.00;90.70;;;;;;5112226;28;20043;-71
2022/04/05 00:14:52;;;;;;;1.60;0.70;;;10.00;90.70;;;;;;5112175;28;20032;-72
2022/04/05 00:17:18;;;;;;;1.45;1.00;;;10.00;90.70;;;;;;5112304;28;20058;-72
2022/04/05 00:19:44;;;;;;;1.77;1.00;;;9.90;90.70;;;;;;5112546;28;20066;-72
2022/04/05 00:22:10;;;;;;;0.85;0.80;;;9.90;90.70;;;;;;5112262;28;20050;-72
2022/04/05 00:24:36;;;;;;;0.73;0.70;;;9.90;90.70;;;;;;5112443;28;20043;-72
2022/04/05 00:27:02;;;;;;;0.80;0.60;;;9.80;90.70;;;;;;5111968;28;20035;-72
2022/04/05 00:29:28;;;;;;;0.52;0.50;;;9.70;90.80;;;;;;5111919;28;20388;-72
2022/04/05 00:31:54;;;;;;;0.60;0.40;;;9.50;90.90;;;;;;5111909;28;20039;-72
2022/04/05 00:34:24;;;;;;;0.55;0.50;;;9.40;90.90;;;;;;5094244;28;20038;-71
2022/04/05 00:36:52;;;;;;;0.40;0.30;;;9.30;91.00;;;;;;5092746;28;20489;-72
2022/04/05 00:39:18;;;;;;;0.20;0.20;;;9.20;91.10;;;;;;5111997;28;20044;-72
2022/04/05 00:41:44;;;;;;;0.20;0.20;;;9.10;91.10;;;;;;5115546;28;20046;-72
2022/04/05 00:44:10;;;;;;;0.30;0.30;;;9.10;91.10;;;;;;5115135;28;20047;-72
2022/04/05 00:46:35;;;;;;;0.30;0.20;;;9.00;91.20;;;;;;5115362;28;20367;-72
2022/04/05 00:49:02;;;;;;;0.28;0.28;;;9.00;91.20;;;;;;5096896;28;20038;-72
2022/04/05 00:51:28;;;;;;;0.10;0.10;;;9.00;91.20;;;;;;5114994;28;20043;-72
2022/04/05 00:53:57;;;;;;;0.20;0.20;;;8.90;91.20;;;;;;5115497;28;20066;-72
2022/04/05 00:56:26;;;;;;;0.10;0.10;;;9.00;91.20;;;;;;5115594;28;20039;-71
2022/04/05 00:58:53;;;;;;;0.13;0.10;;;8.90;91.10;;;;;;5115107;28;20040;-72
2022/04/05 01:01:21;;;;;;;0.20;0.20;;;8.90;91.10;;;;;;5079921;28;20046;-72
2022/04/05 01:03:49;;;;;;;0.73;0.30;;;8.80;91.10;;;;;;5114868;28;20087;-71
2022/04/05 01:06:18;;;;;;;0.10;0.10;;;8.80;91.10;;;;;;5115637;28;20028;-72
2022/04/05 01:08:46;;;;;;;0.10;0.10;;;8.70;91.10;;;;;;5114818;28;20039;-72
2022/04/05 01:11:12;;;;;;;0.20;0.20;;;8.70;91.10;;;;;;5114861;28;20047;-72
2022/04/05 01:13:38;;;;;;;0.38;0.30;;;8.70;91.10;;;;;;5114692;28;20043;-72
2022/04/05 01:16:04;;;;;;;0.20;0.20;;;8.60;91.10;;;;;;5114774;28;20150;-72
2022/04/05 01:18:30;;;;;;;0.30;0.28;;;8.70;91.10;;;;;;5115263;28;20039;-72
2022/04/05 01:20:56;;;;;;;0.73;0.22;;;8.60;91.10;;;;;;5115203;28;20036;-72
2022/04/05 01:23:22;;;;;;;0.68;0.20;;;8.60;91.00;;;;;;5114574;28;20049;-72
2022/04/05 01:25:49;;;;;;;0.10;0.10;;;8.50;91.00;;;;;;5115317;28;20081;-72
2022/04/05 01:28:15;;;;;;;0.32;0.20;;;8.60;91.10;;;;;;5096179;28;20497;-72
2022/04/05 01:30:41;;;;;;;0.20;0.20;;;8.60;91.10;;;;;;5114457;28;20050;-72
2022/04/05 01:33:07;;;;;;;0.20;0.20;;;8.50;91.10;;;;;;5097159;28;20376;-72
2022/04/05 01:35:34;;;;;;;0.43;0.22;;;8.50;91.00;;;;;;5114566;28;20118;-72
2022/04/05 01:38:02;;;;;;;0.22;0.20;;;8.50;91.00;;;;;;5114993;28;20063;-72
2022/04/05 01:40:28;;;;;;;0.10;0.10;;;8.50;91.00;;;;;;5114493;28;20048;-72
2022/04/05 01:42:55;;;;;;;0.28;0.10;;;8.50;91.00;;;;;;5114382;28;20092;-72
2022/04/05 01:45:21;;;;;;;0.10;0.10;;;8.50;91.00;;;;;;5096247;28;20039;-72
2022/04/05 01:47:47;;;;;;;0.00;0.00;;;8.40;91.00;;;;;;5095708;28;20093;-72
2022/04/05 01:50:13;;;;;;;0.25;0.20;;;8.40;91.00;;;;;;5114364;28;20043;-72
2022/04/05 01:52:39;;;;;;;0.20;0.20;;;8.40;91.00;;;;;;5114288;28;20508;-71
2022/04/05 01:55:07;;;;;;;0.10;0.10;;;8.40;91.00;;;;;;5114310;28;20074;-72
2022/04/05 01:57:33;;;;;;;0.10;0.10;;;8.40;91.00;;;;;;5114201;28;20043;-72
2022/04/05 01:59:59;;;;;;;0.10;0.10;;;8.40;91.00;;;;;;5095783;28;20036;-72
2022/04/05 02:02:25;;;;;;;0.17;0.17;;;8.40;91.00;;;;;;5113985;28;20048;-72
2022/04/05 02:04:51;;;;;;;0.13;0.13;;;8.40;90.90;;;;;;5114234;28;20040;-72
2022/04/05 02:07:18;;;;;;;0.20;0.20;;;8.40;90.90;;;;;;5113997;28;20035;-72
2022/04/05 02:09:45;;;;;;;0.38;0.20;;;8.40;90.90;;;;;;5114192;28;20050;-72
2022/04/05 02:12:11;;;;;;;0.17;0.17;;;8.40;90.90;;;;;;5078892;28;20461;-72
2022/04/05 02:14:38;;;;;;;0.05;0.05;;;8.40;91.20;;;;;;5114374;28;20063;-72
2022/04/05 02:17:05;;;;;;;0.17;0.17;;;8.40;90.90;;;;;;5113782;28;20093;-72
2022/04/05 02:19:32;;;;;;;0.10;0.10;;;8.30;90.90;;;;;;5096262;28;20047;-72
2022/04/05 02:21:58;;;;;;;0.10;0.10;;;8.30;90.90;;;;;;5094716;28;20040;-72
2022/04/05 02:24:23;;;;;;;0.20;0.20;;;8.30;90.90;;;;;;5113722;28;20039;-72
2022/04/05 02:26:50;;;;;;;0.17;0.17;;;8.40;90.90;;;;;;5114019;28;20411;-72
2022/04/05 02:29:15;;;;;;;0.20;0.20;;;8.30;90.90;;;;;;5113535;28;20027;-72
2022/04/05 02:31:41;;;;;;;0.15;0.15;;;8.30;90.90;;;;;;5095324;28;20458;-72
2022/04/05 02:34:09;;;;;;;0.20;0.20;;;8.20;90.90;;;;;;5113821;28;20400;-72
2022/04/05 02:36:34;;;;;;;0.10;0.10;;;8.20;90.80;;;;;;5113953;28;20056;-72
2022/04/05 02:39:00;;;;;;;0.20;0.20;;;8.30;90.90;;;;;;5113919;28;20051;-72
2022/04/05 02:41:27;;;;;;;0.10;0.10;;;8.20;90.80;;;;;;5113268;28;20048;-72
2022/04/05 02:43:53;;;;;;;0.20;0.20;;;8.30;90.90;;;;;;5113781;28;20116;-72
2022/04/05 02:46:19;;;;;;;0.10;0.10;;;8.20;90.80;;;;;;5113515;28;20049;-72
2022/04/05 02:48:46;;;;;;;0.10;0.10;;;8.30;90.80;;;;;;5113622;28;20039;-72
2022/04/05 02:51:13;;;;;;;0.20;0.20;;;8.30;91.10;;;;;;5095040;28;20071;-72
2022/04/05 02:53:39;;;;;;;0.22;0.22;;;8.30;90.80;;;;;;5095009;28;20105;-72
2022/04/05 02:56:07;;;;;;;0.32;0.10;;;8.30;90.80;;;;;;5112976;28;20130;-72
2022/04/05 02:58:35;;;;;;;0.30;0.30;;;8.30;90.80;;;;;;5113602;28;20035;-72
2022/04/05 03:01:00;;;;;;;0.20;0.20;;;8.30;90.80;;;;;;5112972;28;20512;-72
2022/04/05 03:03:26;;;;;;;1.08;0.30;;;8.30;90.80;;;;;;5077461;28;20035;-72
2022/04/05 03:05:52;;;;;;;0.17;0.17;;;8.20;90.80;;;;;;5113519;28;20134;-72
2022/04/05 03:08:17;;;;;;;0.20;0.15;;;8.30;90.80;;;;;;5113080;28;20118;-73
2022/04/05 03:10:43;;;;;;;0.20;0.20;;;8.20;90.80;;;;;;5078027;28;20548;-73
2022/04/05 03:18:00;;;;;;;0.28;0.28;;;8.10;90.80;;;;;;5112604;28;20047;-72
2022/04/05 03:20:26;;;;;;;0.60;0.30;;;8.20;90.80;;;;;;5112909;28;20445;-72
2022/04/05 03:22:53;;;;;;;0.20;0.20;;;8.20;90.80;;;;;;5112762;28;20040;-72
2022/04/05 03:25:19;;;;;;;0.47;0.30;;;8.10;90.80;;;;;;5112930;28;20043;-72
2022/04/05 03:27:44;;;;;;;0.65;0.30;;;8.10;90.80;;;;;;5113427;28;20036;-72
2022/04/05 03:30:12;;;;;;;0.20;0.20;;;8.10;90.80;;;;;;5113498;28;20114;-72
2022/04/05 03:32:38;;;;;;;0.10;0.10;;;8.10;90.80;;;;;;5094756;28;20062;-72
2022/04/05 03:35:05;;;;;;;0.30;0.30;;;8.10;90.80;;;;;;5112712;28;20035;-72
2022/04/05 03:37:32;;;;;;;0.43;0.30;;;8.00;90.70;;;;;;5112763;28;20485;-72
2022/04/05 03:39:57;;;;;;;0.47;0.38;;;8.10;90.80;;;;;;5112582;28;20035;-72
2022/04/05 03:42:23;;;;;;;0.65;0.30;;;8.10;90.80;;;;;;5112748;28;20050;-72
2022/04/05 03:44:49;;;;;;;0.17;0.17;;;8.00;90.70;;;;;;5113114;28;20039;-72
2022/04/05 03:47:15;;;;;;;0.38;0.30;;;8.00;90.70;;;;;;5112742;28;20088;-72
2022/04/05 03:49:41;;;;;;;1.10;0.32;;;8.00;90.80;;;;;;5112610;28;20036;-72
2022/04/05 03:52:07;;;;;;;0.70;0.40;;;8.00;90.70;;;;;;5094366;28;20512;-72
2022/04/05 03:54:33;;;;;;;0.90;0.50;;;8.10;90.80;;;;;;5094327;28;20043;-72
2022/04/05 03:56:59;;;;;;;0.47;0.35;;;7.90;90.70;;;;;;5112417;28;20396;-72
2022/04/05 03:59:24;;;;;;;0.10;0.10;;;8.00;90.70;;;;;;5112394;28;20092;-72
2022/04/05 04:01:50;;;;;;;0.28;0.20;;;8.00;90.70;;;;;;5113004;28;20040;-72
2022/04/05 04:04:16;;;;;;;0.32;0.32;;;8.00;90.70;;;;;;5112480;28;20543;-72
2022/04/05 04:06:41;;;;;;;0.25;0.25;;;8.10;90.70;;;;;;5112921;28;20074;-72
2022/04/05 04:09:07;;;;;;;0.25;0.20;;;8.10;90.70;;;;;;5112860;28;20035;-72
2022/04/05 04:11:33;;;;;;;0.20;0.17;;;8.10;90.70;;;;;;5112568;28;20051;-72
2022/04/05 04:13:58;;;;;;;0.80;0.30;;;8.10;90.70;;;;;;5094719;28;20066;-72
2022/04/05 04:16:25;;;;;;;0.20;0.20;;;8.10;90.70;;;;;;5097162;28;20054;-72
2022/04/05 04:18:51;;;;;;;0.73;0.30;;;8.00;90.70;;;;;;5116008;28;20036;-72
2022/04/05 04:21:16;;;;;;;0.52;0.28;;;8.10;90.70;;;;;;5080878;28;20048;-73
2022/04/05 04:23:42;;;;;;;0.32;0.30;;;8.10;90.70;;;;;;5115910;28;20051;-72
2022/04/05 04:26:08;;;;;;;0.22;0.22;;;8.10;90.70;;;;;;5096303;28;20047;-72
2022/04/05 04:28:35;;;;;;;0.30;0.28;;;8.10;90.70;;;;;;5115849;28;20059;-72
2022/04/05 04:31:00;;;;;;;0.30;0.30;;;8.10;90.70;;;;;;5116044;28;20052;-72
2022/04/05 04:33:26;;;;;;;0.50;0.43;;;8.10;90.70;;;;;;5115577;28;20043;-73
2022/04/05 04:35:53;;;;;;;0.57;0.20;;;8.10;90.70;;;;;;5116258;28;20477;-72
2022/04/05 04:38:19;;;;;;;0.40;0.40;;;8.10;90.70;;;;;;5098225;28;20070;-72
2022/04/05 04:40:50;;;;;;;0.32;0.30;;;8.20;90.70;;;;;;5116172;28;20039;-72
2022/04/05 04:43:17;;;;;;;0.50;0.30;;;8.10;90.70;;;;;;5097647;28;20093;-72
2022/04/05 04:45:44;;;;;;;0.45;0.22;;;8.10;90.70;;;;;;5097825;28;20089;-72
2022/04/05 04:48:10;;;;;;;0.25;0.25;;;8.10;90.70;;;;;;5115493;28;20470;-72
2022/04/05 04:50:36;;;;;;;0.65;0.40;;;8.10;90.70;;;;;;5115571;28;20043;-72
2022/04/05 04:53:01;;;;;;;0.32;0.32;;;8.10;90.70;;;;;;5115593;28;20382;-72
2022/04/05 04:55:28;;;;;;;0.45;0.30;;;8.10;90.70;;;;;;5097404;28;20119;-72
2022/04/05 04:57:54;;;;;;;0.40;0.28;;;8.10;90.70;;;;;;5115985;28;20050;-72
2022/04/05 05:00:20;;;;;;;0.68;0.40;;;8.10;90.70;;;;;;5115924;28;20044;-72
2022/04/05 05:02:48;;;;;;;1.15;0.47;;;8.10;90.70;;;;;;5115488;28;20508;-72
2022/04/05 05:05:18;;;;;;;1.45;0.40;;;8.10;90.70;;;;;;5115526;28;20040;-72
2022/04/05 05:07:44;;;;;;;0.40;0.40;;;8.10;90.70;;;;;;5115025;28;20036;-73
2022/04/05 05:10:11;;;;;;;0.20;0.20;;;8.10;90.70;;;;;;5115904;28;20119;-72
2022/04/05 05:12:40;;;;;;;0.45;0.30;;;8.20;90.70;;;;;;5080435;28;20119;-72
2022/04/05 05:15:08;;;;;;;0.20;0.20;;;8.20;90.70;;;;;;5115278;28;20031;-72
2022/04/05 05:17:35;;;;;;;0.57;0.30;;;8.20;90.70;;;;;;5115167;28;20122;-72
2022/04/05 05:20:02;;;;;;;0.45;0.40;;;8.20;90.70;;;;;;5115591;28;20036;-72
2022/04/05 05:22:27;;;;;;;1.75;0.60;;;8.10;90.70;;;;;;5097289;28;20389;-72
2022/04/05 05:24:53;;;;;;;0.47;0.45;;;8.20;90.70;;;;;;5096956;28;20036;-72
2022/04/05 05:27:18;;;;;;;0.50;0.50;;;8.20;90.70;;;;;;5114305;28;20130;-72
2022/04/05 05:29:44;;;;;;;0.30;0.30;;;8.20;90.70;;;;;;5078493;28;20040;-72
2022/04/05 05:32:10;;;;;;;0.30;0.30;;;8.20;90.70;;;;;;5096709;28;20047;-72
2022/04/05 05:34:36;;;;;;;0.88;0.60;;;8.20;90.70;;;;;;5115292;28;21294;-72
2022/04/05 05:37:03;;;;;;;0.73;0.55;;;8.20;90.70;;;;;;5095564;28;20032;-72
2022/04/05 05:39:29;;;;;;;0.50;0.40;;;8.30;90.70;;;;;;5114841;28;20441;-72
2022/04/05 05:41:55;;;;;;;0.77;0.57;;;8.20;90.70;;;;;;5096269;28;20116;-72
2022/04/05 05:44:22;;;;;;;1.13;0.60;;;8.30;90.70;;;;;;5097086;28;20071;-72
2022/04/05 05:46:48;;;;;;;0.60;0.47;;;8.30;90.70;;;;;;5115120;28;20036;-72
2022/04/05 05:49:14;;;;;;;1.10;0.65;;;8.30;90.70;;;;;;5096628;28;20035;-72
2022/04/05 05:51:40;;;;;;;1.02;0.60;;;8.30;90.70;;;;;;5096308;28;20484;-72
2022/04/05 05:54:06;;;;;;;1.08;0.70;;;8.30;90.70;;;;;;5095214;28;20056;-72
2022/04/05 05:56:31;;;;;;;1.13;0.70;;;8.30;90.70;;;;;;5094640;28;20485;-72
2022/04/05 05:58:57;;;;;;;0.98;0.65;;;8.30;90.70;;;;;;5114699;28;20043;-72
2022/04/05 06:01:23;;;;;;;0.77;0.60;;;8.30;90.60;;;;;;5114310;28;20043;-72
2022/04/05 06:03:49;;;;;;;1.42;0.80;;;8.40;90.70;;;;;;5095716;28;20457;-71
2022/04/05 06:06:15;;;;;;;1.10;0.82;;;8.40;90.70;;;;;;5095822;28;20039;-71
2022/04/05 06:08:41;;;;;;;1.95;1.10;;;8.40;90.60;;;;;;5113850;28;20035;-72
2022/04/05 06:11:07;;;;;;;1.45;0.85;;;8.50;90.60;;;;;;5114486;28;20077;-72
2022/04/05 06:13:34;;;;;;;2.08;1.15;;;8.50;90.60;;;;;;5094811;28;20048;-72
2022/04/05 06:16:00;;;;;;;1.85;1.17;;;8.60;90.50;;;;;;5096600;28;20032;-72
2022/04/05 06:18:25;;;;;;;2.33;1.30;;;8.70;90.50;;;;;;5114570;28;20094;-72
2022/04/05 06:20:51;;;;;;;3.53;1.50;;;8.80;90.50;;;;;;5114014;28;20404;-72
2022/04/05 06:23:17;;;;;;;2.40;1.40;;;8.90;90.40;;;;;;5114049;28;20366;-72
2022/04/05 06:25:43;;;;;;;2.45;1.50;;;8.90;90.30;;;;;;5114042;28;20039;-72
2022/04/05 06:28:09;;;;;;;4.25;1.77;;;9.00;90.30;;;;;;5077704;28;20118;-72
2022/04/05 06:30:37;;;;;;;2.95;1.73;;;9.10;90.20;;;;;;5095834;28;20119;-72
2022/04/05 06:33:12;;;;;;;3.05;1.98;;;9.10;90.20;;;;;;5114635;28;20050;-73
2022/04/05 06:35:41;;;;;;;3.17;1.77;;;9.20;90.20;;;;;;5061188;28;20047;-73
2022/04/05 06:38:07;;;;;;;4.35;2.30;;;9.20;90.20;;;;;;5094787;28;20539;-72
2022/04/05 06:40:33;;;;;;;4.15;2.40;;;9.20;90.20;;;;;;5061967;28;20039;-72
2022/04/05 06:42:59;;;;;;;2.97;1.92;;;9.30;90.20;;;;;;5061928;28;20040;-73
2022/04/05 06:45:25;;;;;;;3.17;1.90;;;9.20;90.40;;;;;;5061874;28;20123;-72
2022/04/05 06:47:51;;;;;;;4.57;2.50;;;9.40;90.20;;;;;;5114023;28;20031;-72
2022/04/05 06:50:24;;;;;;;3.50;2.00;;;9.40;90.20;;;;;;5078368;28;20043;-72
2022/04/05 06:52:50;;;;;;;3.47;2.10;;;9.40;90.20;;;;;;5081191;28;20062;-72
2022/04/05 06:55:16;;;;;;;3.65;2.20;;;9.50;90.20;;;;;;5114198;28;20450;-73
2022/04/05 06:57:42;;;;;;;3.60;2.00;;;9.40;90.20;;;;;;5077597;28;20039;-73
2022/04/05 07:00:10;;;;;;;3.97;2.20;;;9.50;90.20;;;;;;5078500;28;20040;-73
2022/04/05 07:02:37;;;;;;;3.75;2.38;;;9.60;90.30;;;;;;5092409;28;20485;-72
2022/04/05 07:05:04;;;;;;;4.13;2.30;;;9.70;90.30;;;;;;5113992;28;20046;-73
2022/04/05 07:07:29;;;;;;;4.90;2.33;;;9.50;90.30;;;;;;5095943;28;20480;-73
2022/04/05 07:09:55;;;;;;;3.22;2.08;;;9.60;90.30;;;;;;5113286;28;20035;-73
2022/04/05 07:12:23;;;;;;;4.65;2.10;;;9.60;90.30;;;;;;5113251;28;20055;-73
2022/04/05 07:14:50;;;;;;;3.60;1.98;;;9.70;90.30;;;;;;5113285;28;20484;-72
2022/04/05 07:17:15;;;;;;;4.30;1.80;;;9.70;90.30;;;;;;5113122;28;20054;-72
2022/04/05 07:19:43;;;;;;;3.08;1.88;;;9.70;90.30;;;;;;5077046;28;20044;-73
2022/04/05 07:22:09;;;;;;;3.88;1.70;;;9.70;90.30;;;;;;5095359;28;20039;-72
2022/04/05 07:24:35;;;;;;;3.65;2.10;;;9.80;90.40;;;;;;5113176;28;20028;-72
2022/04/05 07:27:01;;;;;;;3.97;2.20;;;9.70;90.40;;;;;;5112935;28;20115;-72
2022/04/05 07:29:27;;;;;;;2.85;1.90;;;9.80;90.40;;;;;;5093288;28;20040;-71
2022/04/05 07:31:52;;;;;;;3.70;1.88;;;9.70;90.40;;;;;;5113597;28;20032;-71
2022/04/05 07:34:18;;;;;;;2.88;1.98;;;9.80;90.40;;;;;;5113050;28;20047;-71
2022/04/05 07:36:44;;;;;;;2.78;1.85;;;9.80;90.40;;;;;;5112848;28;20035;-71
2022/04/05 07:39:10;;;;;;;1.80;1.40;;;9.80;90.40;;;;;;5112989;28;20043;-70
2022/04/05 07:41:35;;;;;;;3.60;1.83;;;9.90;90.40;;;;;;5112781;28;20396;-72
2022/04/05 07:44:02;;;;;;;3.97;1.80;;;9.90;90.40;;;;;;5094902;28;20394;-71
2022/04/05 07:46:28;;;;;;;2.85;1.70;;;9.90;90.50;;;;;;5112935;28;20055;-70
2022/04/05 07:48:53;;;;;;;2.60;1.67;;;10.00;90.50;;;;;;5112650;28;20032;-72
2022/04/05 07:51:19;;;;;;;2.60;1.52;;;10.00;90.50;;;;;;5094370;28;20051;-71
2022/04/05 07:53:45;;;;;;;2.20;1.33;;;10.00;90.40;;;;;;5112671;28;20062;-71
2022/04/05 07:56:13;;;;;;;2.45;1.52;;;10.10;90.40;;;;;;5112653;28;20031;-71
2022/04/05 07:58:42;;;;;;;2.75;1.60;;;10.20;90.40;;;;;;5113198;28;20484;-72
2022/04/05 08:01:09;;;;;;;2.35;1.80;;;10.20;90.40;;;;;;5094373;28;20066;-73
2022/04/05 08:03:36;;;;;;;2.33;1.50;;;10.20;90.40;;;;;;5112515;28;20063;-72
2022/04/05 08:06:02;;;;;;;3.65;1.63;;;10.20;90.40;;;;;;5113102;28;20036;-73
2022/04/05 08:08:28;;;;;;;2.80;1.40;;;10.30;90.40;;;;;;5092675;28;20054;-72
2022/04/05 08:10:55;;;;;;;2.47;1.65;;;10.30;90.40;;;;;;5094440;28;20090;-73
2022/04/05 08:13:20;;;;;;;2.47;1.60;;;10.20;90.40;;;;;;5094192;28;20485;-72
2022/04/05 08:15:47;;;;;;;2.28;1.60;;;10.30;90.50;;;;;;5094224;28;20058;-72
2022/04/05 08:18:12;;;;;;;2.05;1.45;;;10.30;90.50;;;;;;5077349;28;20100;-73
2022/04/05 08:20:41;;;;;;;3.13;1.50;;;10.30;90.50;;;;;;5112495;28;20040;-73
2022/04/05 08:23:08;;;;;;;2.97;1.60;;;10.20;90.50;;;;;;5112870;28;20047;-73
2022/04/05 08:25:33;;;;;;;2.03;1.40;;;10.30;90.60;;;;;;5113014;28;20039;-73
2022/04/05 08:27:59;;;;;;;1.55;1.23;;;10.30;90.60;;;;;;5094009;28;20054;-73
2022/04/05 08:30:25;;;;;;;2.47;1.40;;;10.30;90.60;;;;;;5094276;28;20122;-74
2022/04/05 08:32:50;;;;;;;1.63;1.30;;;10.40;90.60;;;;;;5112421;28;20493;-73
2022/04/05 08:35:18;;;;;;;1.80;1.05;;;10.30;90.60;;;;;;5093513;28;20043;-73
2022/04/05 08:37:45;;;;;;;1.58;1.20;;;10.40;90.60;;;;;;5094395;28;20054;-73
2022/04/05 08:40:13;;;;;;;1.65;1.20;;;10.50;90.60;;;;;;5093424;28;20078;-73
2022/04/05 08:42:43;;;;;;;1.95;1.02;;;10.40;90.60;;;;;;5094014;28;20047;-73
2022/04/05 08:45:11;;;;;;;1.90;1.05;;;10.50;90.60;;;;;;5112293;28;20039;-73
2022/04/05 08:47:46;;;;;;;2.03;1.17;;;10.50;90.60;;;;;;5112128;28;20043;-73
2022/04/05 08:50:15;;;;;;;2.42;1.30;;;10.40;90.60;;;;;;5094033;28;20116;-73
2022/04/05 08:52:43;;;;;;;2.30;1.38;;;10.50;90.60;;;;;;5112582;28;20073;-73
2022/04/05 08:55:10;;;;;;;1.70;1.30;;;10.50;90.60;;;;;;5112122;28;20127;-73
2022/04/05 08:57:36;;;;;;;1.55;1.30;;;10.60;90.60;;;;;;5094249;28;20040;-73
2022/04/05 09:00:05;;;;;;;1.85;1.30;;;10.70;90.60;;;;;;5093396;28;20035;-72
2022/04/05 09:02:30;;;;;;;1.90;1.20;;;10.60;90.60;;;;;;5115186;28;20040;-72
2022/04/05 09:04:56;;;;;;;1.70;1.30;;;10.70;90.60;;;;;;5096016;28;20115;-72
2022/04/05 09:07:28;;;;;;;1.95;1.42;;;10.80;90.50;;;;;;5115403;28;20069;-73
2022/04/05 09:10:15;;;;;;;1.58;1.30;;;10.90;90.50;;;;;;5115341;28;20040;-72
2022/04/05 09:12:44;;;;;;;1.48;1.05;;;11.00;90.50;;;;;;5098411;28;20489;-71
2022/04/05 09:15:23;;;;;;;1.92;1.27;;;10.90;90.40;;;;;;5096830;28;20039;-72
2022/04/05 09:17:50;;;;;;;2.22;1.35;;;10.90;90.40;;;;;;5115677;28;20039;-71
2022/04/05 09:20:18;;;;;;;2.38;1.42;;;11.00;90.40;;;;;;5096413;28;20130;-71
2022/04/05 09:22:44;;;;;;;2.17;1.27;;;11.10;90.40;;;;;;5097638;28;20126;-72
2022/04/05 09:25:13;;;;;;;1.23;1.10;;;11.20;90.40;;;;;;5096915;28;20112;-73
2022/04/05 09:27:53;;;;;;;1.85;1.23;;;11.30;90.40;;;;;;5063468;28;20067;-74
2022/04/05 09:30:31;;;;;;;2.17;1.23;;;11.40;90.30;;;;;;5096739;28;20060;-73
2022/04/05 09:32:59;;;;;;;1.65;1.35;;;11.40;90.30;;;;;;5112392;28;20521;-73
2022/04/05 09:35:39;;;;;;;2.30;1.10;;;11.50;90.20;;;;;;5097067;28;20043;-72
2022/04/05 09:38:20;;;;;;;1.75;1.27;;;11.50;90.20;;;;;;5081470;28;20117;-72
2022/04/05 09:40:52;;;;;;;2.17;1.20;;;11.60;90.20;;;;;;5096209;28;20040;-74
2022/04/05 09:43:18;;;;;;;1.50;1.10;;;11.50;90.10;;;;;;5096159;28;20043;-74
2022/04/05 09:45:53;;;;;;;1.90;1.10;;;11.40;90.20;;;;;;5114829;28;20074;-72
2022/04/05 09:48:22;;;;;;;2.35;1.40;;;11.40;90.30;;;;;;5096964;28;20036;-72
2022/04/05 09:51:07;;;;;;;2.65;1.40;;;11.30;90.40;;;;;;5114862;28;20131;-71
2022/04/05 09:53:47;;;;;;;1.67;1.35;;;11.30;90.50;;;;;;5114762;28;20044;-71
2022/04/05 09:56:17;;;;;;;2.28;1.50;;;11.40;90.50;;;;;;5095062;28;20028;-72
2022/04/05 09:58:46;;;;;;;1.77;1.20;;;11.50;90.50;;;;;;5115124;28;20045;-72
2022/04/05 10:01:13;;;;;;;2.00;1.35;;;11.60;90.40;;;;;;5114517;28;20131;-72
2022/04/05 10:03:41;;;;;;;1.88;1.38;;;11.80;90.30;;;;;;5114411;28;20055;-72
2022/04/05 10:06:07;;;;;;;2.30;1.30;;;11.80;90.20;;;;;;5114239;28;20043;-72
2022/04/05 10:08:34;;;;;;;1.58;1.27;;;11.60;90.20;;;;;;5095931;28;20040;-72
2022/04/05 10:11:00;;;;;;;2.13;1.20;;;11.50;90.30;;;;;;5114520;28;20035;-72
2022/04/05 10:13:28;;;;;;;2.25;1.10;;;11.40;90.30;;;;;;5114341;28;20047;-72
2022/04/05 10:15:55;;;;;;;3.58;1.25;;;11.40;90.40;;;;;;5079416;28;20052;-72
2022/04/05 10:18:21;;;;;;;2.10;1.40;;;11.40;90.70;;;;;;5062463;28;20167;-72
2022/04/05 10:20:49;;;;;;;1.83;1.30;;;11.30;90.60;;;;;;5113885;28;20177;-73
2022/04/05 10:23:20;;;;;;;2.97;1.40;;;11.20;90.60;;;;;;5114147;28;20048;-72
2022/04/05 10:25:51;;;;;;;1.90;1.30;;;11.30;90.80;;;;;;5096220;28;20073;-72
2022/04/05 10:28:19;;;;;;;2.90;1.70;;;11.30;90.80;;;;;;5079390;28;20039;-73
2022/04/05 10:30:56;;;;;;;3.40;1.73;;;11.30;90.70;;;;;;5113871;28;20036;-73
2022/04/05 10:33:49;;;;;;;2.55;1.70;;;11.30;90.60;;;;;;5114354;28;20101;-72
2022/04/05 10:36:22;;;;;;;2.17;1.70;;;11.40;90.60;;;;;;5113635;28;20130;-72
2022/04/05 10:39:16;;;;;;;3.00;1.80;;;11.40;90.50;;;;;;5095744;28;20104;-72
2022/04/05 10:42:02;;;;;;;2.97;1.90;;;11.40;90.60;;;;;;5113316;28;20055;-73
2022/04/05 10:44:28;;;;;;;2.75;1.75;;;11.40;90.60;;;;;;5113759;28;20040;-72
2022/04/05 10:46:58;;;;;;;2.45;1.60;;;11.50;90.60;;;;;;5094953;28;20514;-71
2022/04/05 10:49:43;;;;;;;2.60;1.85;;;11.50;90.60;;;;;;5113354;28;20516;-73
2022/04/05 10:52:15;;;;;;;2.20;1.67;;;11.50;90.60;;;;;;5114036;28;20073;-72
2022/04/05 10:54:44;;;;;;;2.30;1.52;;;11.50;90.60;;;;;;5113572;28;20040;-72
2022/04/05 10:57:26;;;;;;;2.60;1.80;;;11.50;90.60;;;;;;5095147;28;20054;-73
2022/04/05 10:59:57;;;;;;;3.28;1.73;;;11.50;90.60;;;;;;5113614;28;20035;-73
2022/04/05 11:02:33;;;;;;;2.15;1.50;;;11.40;90.50;;;;;;5077971;28;20488;-72
2022/04/05 11:05:03;;;;;;;3.85;1.70;;;11.40;90.50;;;;;;5095219;28;20040;-72
2022/04/05 11:08:09;;;;;;;2.60;1.83;;;11.40;90.60;;;;;;5078424;28;20092;-72
2022/04/05 11:10:50;;;;;;;2.22;1.60;;;11.30;90.60;;;;;;5078252;28;20048;-72
2022/04/05 11:13:38;;;;;;;2.40;1.63;;;11.30;90.70;;;;;;5113300;28;20434;-73
2022/04/05 11:16:08;;;;;;;3.25;1.90;;;11.30;90.70;;;;;;5113729;28;20035;-72
2022/04/05 11:18:34;;;;;;;3.45;1.60;;;11.30;90.70;;;;;;5076410;28;20089;-73
2022/04/05 11:21:02;;;;;;;2.83;1.80;;;11.50;90.80;;;;;;5113659;28;20035;-72
2022/04/05 11:23:49;;;;;;;2.05;1.48;;;11.40;90.70;;;;;;5113058;28;20040;-72
2022/04/05 11:26:35;;;;;;;2.67;1.60;;;11.50;90.70;;;;;;5113766;28;20489;-73
2022/04/05 11:29:03;;;;;;;3.28;1.75;;;11.60;90.60;;;;;;5113218;28;20031;-72
2022/04/05 11:31:37;;;;;;;3.38;1.88;;;11.60;90.50;;;;;;5094993;28;20523;-72
2022/04/05 11:34:45;;;;;;;1.95;1.60;;;11.60;90.40;;;;;;5113250;28;20130;-72
2022/04/05 11:37:11;;;;;;;3.25;1.83;;;11.60;90.40;;;;;;5112983;28;20071;-75
2022/04/05 11:39:39;;;;;;;2.92;1.80;;;11.60;90.50;;;;;;5078708;28;20046;-75
2022/04/05 11:42:06;;;;;;;1.85;1.45;;;11.60;90.50;;;;;;5113502;28;20052;-74
2022/04/05 11:44:32;;;;;;;2.70;1.55;;;11.60;90.50;;;;;;5112574;28;20044;-75
2022/04/05 11:47:00;;;;;;;1.77;1.33;;;11.70;90.50;;;;;;5094966;28;20038;-74
2022/04/05 11:49:26;;;;;;;1.23;1.02;;;11.70;90.40;;;;;;5112868;28;20088;-74
2022/04/05 11:51:53;;;;;;;1.73;1.17;;;11.90;90.40;;;;;;5112675;28;20067;-74
2022/04/05 11:54:24;;;;;;;1.65;1.30;;;11.90;90.30;;;;;;5112920;28;20051;-73
2022/04/05 11:56:50;;;;;;;;;;;11.90;90.40;;;;;;5113337;28;20035;-74
2022/04/05 11:59:18;;;;;;;1.42;1.20;;;11.90;90.30;;;;;;5112640;28;19923;-74
2022/04/05 12:01:49;;;;;;;2.30;1.50;;;11.90;90.40;;;;;;5112428;28;20043;-74
2022/04/05 12:04:20;;;;;;;2.40;1.33;;;11.90;90.40;;;;;;5112349;28;20382;-74
2022/04/05 12:06:48;;;;;;;1.30;1.15;;;11.90;90.40;;;;;;5095396;28;20469;-74
2022/04/05 12:09:17;;;;;;;2.58;1.40;;;11.90;90.40;;;;;;5112732;28;20039;-73
2022/04/05 12:11:46;;;;;;;3.05;1.40;;;11.90;90.40;;;;;;5112940;28;20048;-75
2022/04/05 12:14:14;;;;;;;1.92;1.50;;;11.90;90.40;;;;;;5094422;28;20130;-73
2022/04/05 12:16:54;;;;;;;1.35;1.13;;;11.90;90.70;;;;;;5094279;28;20044;-74
2022/04/05 12:19:23;;;;;;;1.70;1.23;;;12.00;90.40;;;;;;5112772;28;20040;-74
2022/04/05 12:21:56;;;;;;;1.90;1.20;;;12.10;90.40;;;;;;5094287;28;20048;-73
2022/04/05 12:24:22;;;;;;;3.00;1.40;;;12.20;90.30;;;;;;5078594;28;20039;-74
2022/04/05 12:26:48;;;;;;;2.22;1.30;;;12.50;90.20;;;;;;5114359;28;20251;-72
2022/04/05 12:29:14;;;;;;;2.03;1.20;;;12.60;90.10;;;;;;5094029;28;20126;-72
2022/04/05 12:31:40;;;;;;;1.60;1.00;;;12.70;89.90;;;;;;5112745;28;20051;-71
2022/04/05 12:34:11;;;;;;;2.28;1.38;;;12.70;89.60;;;;;;5112129;28;20039;-71
2022/04/05 12:36:41;;;;;;;2.05;1.35;;;12.70;89.50;;;;;;5079044;28;20046;-71
2022/04/05 12:39:25;;;;;;;1.75;1.23;;;12.80;89.40;;;;;;5097306;28;20081;-71
2022/04/05 12:41:53;;;;;;;2.50;1.50;;;12.80;89.40;;;;;;5115614;28;20485;-70
2022/04/05 12:44:21;;;;;;;1.70;1.40;;;12.60;89.50;;;;;;5096400;28;20044;-72
2022/04/05 12:46:53;;;;;;;1.65;1.30;;;12.50;89.80;;;;;;5115543;28;20181;-74
2022/04/05 12:49:35;;;;;;;1.95;1.55;;;12.40;90.00;;;;;;5097190;28;20101;-73
2022/04/05 12:52:11;;;;;;;2.72;2.00;;;12.40;90.10;;;;;;5115257;28;20050;-73
2022/04/05 12:54:45;;;;;;;3.00;2.30;;;12.20;90.20;;;;;;5096760;28;20061;-72
2022/04/05 12:57:14;;;;;;;5.00;2.75;;;12.20;90.30;;;;;;5115811;28;20046;-73
2022/04/05 12:59:41;;;;;;;3.30;2.63;;;12.00;90.30;;;;;;5115819;28;20054;-73
2022/04/05 13:02:15;;;;;;;4.20;2.55;;;12.00;90.40;;;;;;5097475;28;20053;-73